»·PEaware :: N373EB KSMX-KWHP

N373EB :: KSMX-KWHP

FLIGHT INFORMATION

Flight Status: Arrived
Operator: Privately registered:
United States
More flights under this callsign
Pilot: Peder R. (40111)
Aircraft: BEECH AIRCRAFT DEBONAIR BONANZA
(BE33)
More flights by this aircraft type
Origin: KSMX Santa Maria Pub/Capt Hancock
United States
Destination: KWHP Whiteman
United States
More flights between these airports :: More routes between these airports
Route: RZS V186 FIM
File this flight plan on PilotEdge
Remarks:
Altitude:
(Current/Filed)
7,000ft
Speed:
(Current/Filed)
155kts
Departed: 27-Sep-23 04:28 PM
Arrived: 27-Sep-23 05:23 PM
Distance/Time
Traveled:
108nm/0:55
Distance/Time
To Go:
Arrived

Flight Plot

Page will automatically refresh every two minutes.


Map Options




Map Legend


Flown Route
Filed Route
Departure Airport
Arrival Airport
Navaid (VOR, NDB)
Fix

Horizontal Profiles

Position Reports

Time Latitude Longitude Heading Altitude Ground
Speed
27-Sep-23 16:16 34.896551 -120.445695 314 264ft 0kts
27-Sep-23 16:18 34.896551 -120.445695 314 264ft 0kts
27-Sep-23 16:18 34.896551 -120.445695 314 264ft 0kts
27-Sep-23 16:19 34.896551 -120.445695 314 264ft 0kts
27-Sep-23 16:20 34.896551 -120.445695 314 264ft 0kts
27-Sep-23 16:21 34.896237 -120.446181 135 264ft 8kts
27-Sep-23 16:23 34.893817 -120.444937 233 264ft 0kts
27-Sep-23 16:23 34.893817 -120.444937 233 264ft 0kts
27-Sep-23 16:24 34.893816 -120.444937 233 264ft 0kts
27-Sep-23 16:25 34.893448 -120.445210 181 264ft 0kts
27-Sep-23 16:26 34.893396 -120.445211 181 264ft 5kts
27-Sep-23 16:27 34.900228 -120.453829 308 418ft 82kts
27-Sep-23 16:28 34.915140 -120.446091 110 1526ft 122kts
27-Sep-23 16:29 34.886207 -120.444376 207 2406ft 115kts
27-Sep-23 16:30 34.853758 -120.443263 144 3146ft 127kts
27-Sep-23 16:31 34.824354 -120.418247 143 4003ft 126kts
27-Sep-23 16:32 34.794519 -120.394395 143 4831ft 127kts
27-Sep-23 16:33 34.765333 -120.369733 143 5643ft 126kts
27-Sep-23 16:34 34.737228 -120.343700 115 6367ft 124kts
27-Sep-23 16:35 34.722375 -120.305252 109 6972ft 131kts
27-Sep-23 16:36 34.705243 -120.259579 111 7051ft 160kts
27-Sep-23 16:37 34.685030 -120.211474 123 6949ft 158kts
27-Sep-23 16:38 34.666088 -120.164482 119 6964ft 152kts
27-Sep-23 16:39 34.647628 -120.118448 117 6985ft 149kts
27-Sep-23 16:40 34.629706 -120.072667 117 7016ft 148kts
27-Sep-23 16:41 34.611218 -120.027377 119 7023ft 149kts
27-Sep-23 16:42 34.593644 -119.981064 121 7043ft 147kts
27-Sep-23 16:43 34.574876 -119.935837 119 7020ft 149kts
27-Sep-23 16:44 34.556455 -119.890290 116 7007ft 147kts
27-Sep-23 16:45 34.537939 -119.845023 116 6984ft 146kts
27-Sep-23 16:46 34.520472 -119.800521 116 7042ft 145kts
27-Sep-23 16:47 34.500988 -119.756930 121 7053ft 145kts
27-Sep-23 16:48 34.478645 -119.715143 119 7047ft 146kts
27-Sep-23 16:49 34.455822 -119.673503 121 7017ft 147kts
27-Sep-23 16:50 34.433464 -119.631533 121 7010ft 147kts
27-Sep-23 16:51 34.410476 -119.590240 120 7011ft 146kts
27-Sep-23 16:52 34.388670 -119.548149 117 7005ft 146kts
27-Sep-23 16:53 34.365898 -119.506805 124 7008ft 146kts
27-Sep-23 16:54 34.343310 -119.465327 123 7006ft 146kts
27-Sep-23 16:55 34.320724 -119.423579 121 7015ft 147kts
27-Sep-23 16:56 34.320447 -119.372700 90 7010ft 153kts
27-Sep-23 16:57 34.323821 -119.320628 88 7034ft 154kts
27-Sep-23 16:58 34.327605 -119.267943 80 7045ft 156kts
27-Sep-23 16:59 34.331659 -119.214983 79 7001ft 158kts
27-Sep-23 17:00 34.334989 -119.162106 79 7026ft 155kts
27-Sep-23 17:01 34.339346 -119.109688 81 6998ft 155kts
27-Sep-23 17:02 34.344327 -119.058014 83 7005ft 153kts
27-Sep-23 17:03 34.348035 -119.006316 82 7014ft 152kts
27-Sep-23 17:04 34.351107 -118.960171 81 7047ft 115kts
27-Sep-23 17:05 34.354028 -118.921959 83 6753ft 112kts
27-Sep-23 17:06 34.356434 -118.883831 91 6321ft 118kts
27-Sep-23 17:07 34.330075 -118.848858 133 5196ft 157kts
27-Sep-23 17:08 34.298438 -118.811372 130 4443ft 138kts
27-Sep-23 17:09 34.274404 -118.782327 131 4413ft 115kts
27-Sep-23 17:10 34.251563 -118.755672 128 4446ft 108kts
27-Sep-23 17:11 34.231203 -118.730884 137 4425ft 102kts
27-Sep-23 17:12 34.223024 -118.697314 93 4052ft 114kts
27-Sep-23 17:13 34.222912 -118.660864 95 3895ft 107kts
27-Sep-23 17:14 34.222905 -118.625754 93 3910ft 103kts
27-Sep-23 17:15 34.223416 -118.591445 92 3911ft 100kts
27-Sep-23 17:16 34.222765 -118.553949 91 3335ft 118kts
27-Sep-23 17:17 34.222987 -118.517928 93 3197ft 100kts
27-Sep-23 17:18 34.227046 -118.485234 51 2974ft 109kts
27-Sep-23 17:19 34.244655 -118.455078 59 2233ft 111kts
27-Sep-23 17:20 34.268870 -118.445462 12 1947ft 99kts
27-Sep-23 17:21 34.268769 -118.423412 136 1324ft 76kts
27-Sep-23 17:22 34.257900 -118.411809 114 983ft 13kts
27-Sep-23 17:23 34.258102 -118.411538 317 983ft 4kts
27-Sep-23 17:24 34.259690 -118.412726 49 992ft 4kts

Navigation Log

Ident Type
Flight plan parsing failed, navigation log unavailable